createdAt,value
2019-02-06T00:01:31.264Z,102371.11
2019-02-06T00:03:59.347Z,102381.36
2019-02-06T00:06:27.468Z,102378.68
2019-02-06T00:08:55.265Z,102380.89
2019-02-06T00:11:23.156Z,102377.34
2019-02-06T00:13:50.973Z,102376.88
2019-02-06T00:16:18.824Z,102375.51
2019-02-06T00:18:46.628Z,102379.98
2019-02-06T00:21:14.448Z,102374.16
2019-02-06T00:23:42.368Z,102381.28
2019-02-06T00:26:10.274Z,102378.19
2019-02-06T00:28:38.378Z,102367.91
2019-02-06T00:31:06.479Z,102376.84
2019-02-06T00:33:34.293Z,102373.30
2019-02-06T00:36:02.102Z,102361.27
2019-02-06T00:38:29.850Z,102367.03
2019-02-06T00:40:57.787Z,102375.49
2019-02-06T00:43:25.921Z,102375.92
2019-02-06T00:45:53.844Z,102367.89
2019-02-06T00:48:21.592Z,102375.91
2019-02-06T00:50:49.345Z,102371.91
2019-02-06T00:53:17.465Z,102364.31
2019-02-06T00:55:45.209Z,102367.88
2019-02-06T00:58:12.948Z,102346.39
2019-02-06T01:00:41.285Z,102368.77
2019-02-06T01:03:09.158Z,102364.73
2019-02-06T01:05:38.708Z,102367.86
2019-02-06T01:08:08.731Z,102364.23
2019-02-06T01:10:36.588Z,102336.58
2019-02-06T01:13:04.678Z,102363.39
2019-02-06T01:15:32.408Z,102362.05
2019-02-06T01:18:00.498Z,102362.09
2019-02-06T01:20:28.308Z,102358.97
2019-02-06T01:22:57.244Z,102366.09
2019-02-06T01:25:24.996Z,102359.41
2019-02-06T01:27:52.828Z,102358.52
2019-02-06T01:30:22.846Z,102355.81
2019-02-06T01:32:50.789Z,102358.49
2019-02-06T01:35:18.798Z,102356.25
2019-02-06T01:37:46.540Z,102348.69
2019-02-06T01:40:15.013Z,102338.89
2019-02-06T01:42:42.864Z,102344.25
2019-02-06T01:45:11.444Z,102345.96
2019-02-06T01:47:39.216Z,102352.61
2019-02-06T01:50:09.582Z,102351.72
2019-02-06T01:52:37.423Z,102354.36
2019-02-06T01:55:05.429Z,102360.23
2019-02-06T01:57:33.177Z,102347.34
2019-02-06T02:00:00.972Z,102357.16
2019-02-06T02:02:28.822Z,102342.91
2019-02-06T02:04:56.648Z,102349.08
2019-02-06T02:07:24.472Z,102339.22
2019-02-06T02:09:52.601Z,102345.50
2019-02-06T02:12:20.461Z,102339.68
2019-02-06T02:14:48.343Z,102334.33
2019-02-06T02:17:16.180Z,102341.08
2019-02-06T02:19:43.984Z,102331.72
2019-02-06T02:22:11.749Z,102326.39
2019-02-06T02:24:39.549Z,102321.02
2019-02-06T02:27:07.521Z,102313.85
2019-02-06T02:29:35.293Z,102316.56
2019-02-06T02:32:03.223Z,102304.09
2019-02-06T02:34:31.091Z,102299.22
2019-02-06T02:36:58.881Z,102296.53
2019-02-06T02:39:26.688Z,102300.52
2019-02-06T02:41:54.428Z,102299.64
2019-02-06T02:44:22.310Z,102296.52
2019-02-06T02:46:50.104Z,102288.50
2019-02-06T02:49:17.850Z,102287.17
2019-02-06T02:51:45.607Z,102279.56
2019-02-06T02:54:13.531Z,102280.94
2019-02-06T02:56:41.407Z,102284.91
2019-02-06T02:59:09.200Z,102268.88
2019-02-06T03:02:02.407Z,102269.29
2019-02-06T03:04:40.702Z,102272.01
2019-02-06T03:07:08.530Z,102269.38
2019-02-06T03:09:36.931Z,102274.22
2019-02-06T03:12:04.691Z,102277.34
2019-02-06T03:14:32.431Z,102276.00
2019-02-06T03:17:03.260Z,102271.16
2019-02-06T03:19:29.789Z,102211.29
2019-02-06T03:21:57.529Z,102253.72
2019-02-06T03:24:25.371Z,102247.47
2019-02-06T03:26:53.373Z,102238.09
2019-02-06T03:29:21.149Z,102238.55
2019-02-06T03:31:49.030Z,102231.88
2019-02-06T03:34:16.939Z,102232.78
2019-02-06T03:36:44.752Z,102227.41
2019-02-06T03:39:12.590Z,102229.63
2019-02-06T03:41:40.329Z,102222.95
2019-02-06T03:44:08.473Z,102215.36
2019-02-06T03:46:36.318Z,102210.91
2019-02-06T03:49:04.215Z,102206.44
2019-02-06T03:51:32.076Z,102201.97
2019-02-06T03:53:59.829Z,102202.86
2019-02-06T03:56:27.643Z,102196.63
2019-02-06T03:58:55.427Z,102195.28
2019-02-06T04:01:23.562Z,102188.14
2019-02-06T04:03:51.367Z,102190.38
2019-02-06T04:06:19.291Z,102194.36
2019-02-06T04:08:47.118Z,102179.65
2019-02-06T04:11:14.863Z,102166.27
2019-02-06T04:13:42.628Z,102149.27
2019-02-06T04:16:10.402Z,102169.37
2019-02-06T04:18:38.550Z,102171.17
2019-02-06T04:21:06.320Z,102161.82
2019-02-06T04:23:34.137Z,102168.94
2019-02-06T04:26:02.046Z,102162.26
2019-02-06T04:28:29.809Z,102157.80
2019-02-06T04:30:57.654Z,102150.19
2019-02-06T04:33:25.515Z,102133.72
2019-02-06T04:35:53.740Z,102128.34
2019-02-06T04:38:21.767Z,102119.87
2019-02-06T04:40:49.948Z,102122.55
2019-02-06T04:43:17.845Z,102112.25
2019-02-06T04:45:45.658Z,102102.91
2019-02-06T04:48:13.404Z,102107.81
2019-02-06T04:50:41.216Z,102112.70
2019-02-06T04:53:09.361Z,102117.64
2019-02-06T04:55:37.200Z,102118.08
2019-02-06T04:58:06.769Z,102118.08
2019-02-06T05:00:34.583Z,102110.94
2019-02-06T05:03:02.409Z,102101.57
2019-02-06T05:05:30.192Z,102094.45
2019-02-06T05:07:58.057Z,102082.39
2019-02-06T05:10:26.212Z,102083.73
2019-02-06T05:12:54.019Z,102081.95
2019-02-06T05:15:21.816Z,102069.89
2019-02-06T05:17:49.786Z,102072.13
2019-02-06T05:20:20.632Z,102075.72
2019-02-06T05:22:48.454Z,102070.79
2019-02-06T05:25:16.284Z,102067.21
2019-02-06T05:27:44.628Z,102070.80
2019-02-06T05:30:12.497Z,102072.56
2019-02-06T05:32:42.940Z,102069.45
2019-02-06T05:35:10.017Z,102065.42
2019-02-06T05:38:09.491Z,102062.75
2019-02-06T05:40:37.280Z,102062.31
2019-02-06T05:43:05.027Z,102065.45
2019-02-06T05:45:32.891Z,102064.97
2019-02-06T05:48:00.856Z,102058.73
2019-02-06T05:50:28.620Z,102054.74
2019-02-06T05:52:56.509Z,102047.15
2019-02-06T05:55:27.828Z,102040.45
2019-02-06T05:57:55.730Z,102045.81
2019-02-06T06:00:27.387Z,102037.31
2019-02-06T06:02:56.926Z,102041.31
2019-02-06T06:05:24.909Z,102049.38
2019-02-06T06:07:52.988Z,102048.05
2019-02-06T06:10:20.846Z,102048.47
2019-02-06T06:12:48.575Z,102044.00
2019-02-06T06:15:27.414Z,102044.41
2019-02-06T06:17:55.273Z,102045.30
2019-02-06T06:20:23.102Z,102041.28
2019-02-06T06:22:50.991Z,102046.21
2019-02-06T06:25:18.839Z,102044.45
2019-02-06T06:27:46.993Z,102048.91
2019-02-06T06:30:15.382Z,102050.67
2019-02-06T06:32:43.550Z,102039.06
2019-02-06T06:35:11.460Z,102030.16
2019-02-06T06:37:41.339Z,102031.95
2019-02-06T06:40:10.237Z,102031.52
2019-02-06T06:42:38.169Z,102031.94
2019-02-06T06:45:07.672Z,102023.46
2019-02-06T06:47:35.564Z,102022.11
2019-02-06T06:50:03.600Z,102022.16
2019-02-06T06:52:31.472Z,102010.06
2019-02-06T06:54:59.349Z,102014.52
2019-02-06T06:57:27.117Z,102012.75
2019-02-06T06:59:55.695Z,102006.49
2019-02-06T07:02:23.705Z,102009.16
2019-02-06T07:04:51.533Z,102006.08
2019-02-06T07:07:19.281Z,101998.48
2019-02-06T07:09:47.140Z,102002.50
2019-02-06T07:12:14.872Z,102002.03
2019-02-06T07:14:42.671Z,101998.92
2019-02-06T07:17:10.522Z,101999.36
2019-02-06T07:19:38.354Z,101999.37
2019-02-06T07:22:06.193Z,101997.59
2019-02-06T07:24:34.152Z,101998.48
2019-02-06T07:27:01.983Z,101998.94
2019-02-06T07:29:29.736Z,101985.09
2019-02-06T07:31:57.469Z,101991.34
2019-02-06T07:34:25.244Z,101988.23
2019-02-06T07:36:53.138Z,101985.12
2019-02-06T07:39:20.909Z,101983.80
2019-02-06T07:41:48.737Z,101976.64
2019-02-06T07:44:16.555Z,101967.28
2019-02-06T07:46:44.419Z,101962.39
2019-02-06T07:49:12.193Z,101953.90
2019-02-06T07:51:39.956Z,101959.25
2019-02-06T07:54:08.263Z,101965.48
2019-02-06T07:56:36.078Z,101958.36
2019-02-06T07:59:04.186Z,101959.25
2019-02-06T08:01:32.088Z,101954.37
2019-02-06T08:03:59.826Z,101953.00
2019-02-06T08:06:27.569Z,101948.08
2019-02-06T08:08:55.328Z,101945.42
2019-02-06T08:11:23.561Z,101948.98
2019-02-06T08:13:51.780Z,101942.29
2019-02-06T08:16:19.587Z,101936.91
2019-02-06T08:18:47.512Z,101936.89
2019-02-06T08:21:15.244Z,101937.41
2019-02-06T08:23:42.977Z,101919.95
2019-02-06T08:26:10.739Z,101930.62
2019-02-06T08:28:38.864Z,101922.61
2019-02-06T08:31:06.728Z,101930.19
2019-02-06T08:33:34.598Z,101930.64
2019-02-06T08:36:02.407Z,101924.87
2019-02-06T08:38:30.332Z,101922.20
2019-02-06T08:40:58.109Z,101911.05
2019-02-06T08:43:26.015Z,101916.37
2019-02-06T08:45:54.056Z,101911.94
2019-02-06T08:48:21.887Z,101904.75
2019-02-06T08:50:49.619Z,101913.69
2019-02-06T08:53:17.467Z,101910.09
2019-02-06T08:55:45.228Z,101917.25
2019-02-06T08:58:12.964Z,101919.02
2019-02-06T09:00:40.751Z,101910.55
2019-02-06T09:03:09.347Z,101906.97
2019-02-06T09:05:37.112Z,101892.69
2019-02-06T09:08:05.608Z,101907.87
2019-02-06T09:10:33.361Z,101896.75
2019-02-06T09:13:01.167Z,101894.98
2019-02-06T09:15:28.924Z,101898.11
2019-02-06T09:17:56.760Z,101903.47
2019-02-06T09:20:25.228Z,101886.95
2019-02-06T09:22:53.080Z,101885.14
2019-02-06T09:25:21.008Z,101885.60
2019-02-06T09:27:48.771Z,101882.07
2019-02-06T09:30:20.373Z,101875.41
2019-02-06T09:32:48.168Z,101870.50
2019-02-06T09:35:15.983Z,101868.70
2019-02-06T09:37:44.013Z,101879.41
2019-02-06T09:40:12.464Z,101864.23
2019-02-06T09:42:40.248Z,101869.13
2019-02-06T09:45:08.465Z,101863.80
2019-02-06T09:47:36.275Z,101857.57
2019-02-06T09:50:05.121Z,101858.90
2019-02-06T09:52:32.905Z,101859.84
2019-02-06T09:55:01.127Z,101857.16
2019-02-06T09:57:28.927Z,101851.80
2019-02-06T09:59:56.680Z,101861.17
2019-02-06T10:02:24.443Z,101860.70
2019-02-06T10:04:52.263Z,101863.38
2019-02-06T10:07:19.985Z,101869.19
2019-02-06T10:09:47.784Z,101861.16
2019-02-06T10:12:16.002Z,101859.88
2019-02-06T10:14:43.833Z,101856.70
2019-02-06T10:17:11.585Z,101843.77
2019-02-06T10:19:42.350Z,101857.63
2019-02-06T10:22:09.024Z,101854.94
2019-02-06T10:24:36.770Z,101854.95
2019-02-06T10:27:04.598Z,101853.58
2019-02-06T10:29:32.827Z,101850.07
2019-02-06T10:32:00.580Z,101845.60
2019-02-06T10:34:28.350Z,101837.15
2019-02-06T10:36:56.101Z,101836.23
2019-02-06T10:39:33.981Z,101832.20
2019-02-06T10:41:53.373Z,101835.80
2019-02-06T10:44:21.214Z,101833.57
2019-02-06T10:46:49.224Z,101828.20
2019-02-06T10:49:16.963Z,101821.94
2019-02-06T10:51:44.744Z,101821.95
2019-02-06T10:54:14.614Z,101821.06
2019-02-06T10:56:42.044Z,101818.38
2019-02-06T10:59:09.864Z,101810.81
2019-02-06T11:01:37.624Z,101812.59
2019-02-06T11:04:05.546Z,101805.92
2019-02-06T11:06:33.562Z,101809.50
2019-02-06T11:09:01.320Z,101806.38
2019-02-06T11:11:29.103Z,101805.06
2019-02-06T11:13:56.912Z,101810.86
2019-02-06T11:16:24.656Z,101810.86
2019-02-06T11:18:52.411Z,101816.20
2019-02-06T11:21:20.537Z,101814.42
2019-02-06T11:23:48.428Z,101807.28
2019-02-06T11:26:16.204Z,101810.40
2019-02-06T11:28:44.028Z,101821.08
2019-02-06T11:31:11.940Z,101805.05
2019-02-06T11:33:39.688Z,101808.61
2019-02-06T11:36:07.754Z,101798.80
2019-02-06T11:38:35.776Z,101798.80
2019-02-06T11:41:03.711Z,101803.25
2019-02-06T11:43:32.129Z,101799.67
2019-02-06T11:55:45.379Z,101795.64
2019-02-06T11:58:13.152Z,101790.75
2019-02-06T12:01:06.275Z,101785.84
2019-02-06T12:03:34.028Z,101792.06
2019-02-06T12:06:02.042Z,101790.30
2019-02-06T12:08:31.253Z,101786.71
2019-02-06T12:10:59.152Z,101779.59
2019-02-06T12:13:27.164Z,101779.60
2019-02-06T12:15:54.988Z,101770.63
2019-02-06T12:18:22.769Z,101770.66
2019-02-06T12:20:51.735Z,101771.12
2019-02-06T12:23:31.544Z,101764.41
2019-02-06T12:25:51.832Z,101765.31
2019-02-06T12:28:19.613Z,101768.42
2019-02-06T12:30:47.432Z,101756.38
2019-02-06T12:33:15.237Z,101761.73
2019-02-06T12:35:43.146Z,101750.61
2019-02-06T12:38:10.987Z,101745.68
2019-02-06T12:40:38.815Z,101745.69
2019-02-06T12:43:07.188Z,101739.87
2019-02-06T12:45:36.685Z,101738.07
2019-02-06T12:48:04.575Z,101736.34
2019-02-06T12:50:32.395Z,101737.20
2019-02-06T12:53:00.242Z,101729.17
2019-02-06T12:55:29.280Z,101722.95
2019-02-06T12:57:57.084Z,101731.44
2019-02-06T13:00:25.755Z,101722.91
2019-02-06T13:02:57.305Z,101729.60
2019-02-06T13:05:23.449Z,101729.13
2019-02-06T13:07:51.316Z,101730.90
2019-02-06T13:10:19.186Z,101728.70
2019-02-06T13:12:47.142Z,101730.06
2019-02-06T13:15:14.905Z,101710.01
2019-02-06T13:17:42.763Z,101726.93
2019-02-06T13:20:12.277Z,101720.25
2019-02-06T13:22:40.046Z,101717.14
2019-02-06T13:25:08.169Z,101706.84
2019-02-06T13:27:36.227Z,101711.76
2019-02-06T13:30:04.720Z,101705.52
2019-02-06T13:32:32.444Z,101699.25
2019-02-06T13:35:00.335Z,101698.37
2019-02-06T13:37:28.436Z,101698.37
2019-02-06T13:39:56.224Z,101694.80
2019-02-06T13:42:24.003Z,101694.36
2019-02-06T13:44:51.789Z,101697.44
2019-02-06T13:47:19.619Z,101696.52
2019-02-06T13:49:47.445Z,101697.00
2019-02-06T13:52:15.472Z,101692.97
2019-02-06T13:54:43.235Z,101688.06
2019-02-06T13:57:11.069Z,101692.99
2019-02-06T13:59:38.891Z,101685.39
2019-02-06T14:02:06.648Z,101687.17
2019-02-06T14:04:34.415Z,101680.95
2019-02-06T14:07:02.216Z,101689.83
2019-02-06T14:09:29.958Z,101694.31
2019-02-06T14:11:57.700Z,101687.16
2019-02-06T14:14:26.990Z,101682.67
2019-02-06T14:16:54.971Z,101678.19
2019-02-06T14:19:22.800Z,101677.80
2019-02-06T14:21:50.836Z,101676.02
2019-02-06T14:24:37.864Z,101677.80
2019-02-06T14:27:24.896Z,101671.53
2019-02-06T14:30:27.344Z,101667.95
2019-02-06T14:33:02.372Z,101661.66
2019-02-06T14:35:33.614Z,101663.87
2019-02-06T14:38:30.002Z,101675.01
2019-02-06T14:41:08.635Z,101671.93
2019-02-06T14:44:03.756Z,101667.05
2019-02-06T14:47:09.063Z,101657.20
2019-02-06T14:49:55.018Z,101659.40
2019-02-06T14:52:26.541Z,101660.28
2019-02-06T14:55:00.664Z,101654.01
2019-02-06T14:57:35.730Z,101651.83
2019-02-06T15:00:26.330Z,101646.45
2019-02-06T15:03:13.494Z,101646.02
2019-02-06T15:06:03.726Z,101638.88
2019-02-06T15:08:40.491Z,101643.75
2019-02-06T15:11:19.695Z,101644.19
2019-02-06T15:13:55.800Z,101647.36
2019-02-06T15:16:48.884Z,101639.22
2019-02-06T15:19:38.816Z,101617.03
2019-02-06T15:22:15.309Z,101641.94
2019-02-06T15:25:11.238Z,101637.45
2019-02-06T15:27:57.080Z,101627.64
2019-02-06T15:30:34.180Z,101631.19
2019-02-06T15:33:23.782Z,101626.28
2019-02-06T15:35:59.104Z,101629.41
2019-02-06T15:38:39.977Z,101628.94
2019-02-06T15:41:31.340Z,101630.27
2019-02-06T15:44:05.849Z,101632.95
2019-02-06T15:46:47.439Z,101631.17
2019-02-06T15:49:23.881Z,101629.84
2019-02-06T15:52:29.357Z,101627.60
2019-02-06T15:55:15.342Z,101631.64
2019-02-06T15:58:20.988Z,101625.38
2019-02-06T16:01:07.060Z,101633.37
2019-02-06T16:04:09.914Z,101636.05
2019-02-06T16:06:56.026Z,101630.67
2019-02-06T16:09:34.686Z,101632.03
2019-02-06T16:12:06.023Z,101624.00
2019-02-06T16:14:56.363Z,101620.40
2019-02-06T16:17:42.461Z,101620.83
2019-02-06T16:20:35.607Z,101622.64
2019-02-06T16:23:31.668Z,101616.47
2019-02-06T16:26:07.438Z,101630.67
2019-02-06T16:28:57.251Z,101636.03
2019-02-06T16:31:30.145Z,101627.09
2019-02-06T16:34:01.825Z,101631.59
2019-02-06T16:36:55.178Z,101624.84
2019-02-06T16:39:29.149Z,101627.08
2019-02-06T16:42:22.691Z,101610.11
2019-02-06T16:44:56.615Z,101617.70
2019-02-06T16:47:27.568Z,101616.73
2019-02-06T16:50:26.805Z,101614.55
2019-02-06T16:53:12.620Z,101618.58
2019-02-06T16:55:59.481Z,101619.44
2019-02-06T16:58:31.564Z,101622.09
2019-02-06T17:01:17.513Z,101616.73
2019-02-06T17:03:57.944Z,101595.45
2019-02-06T17:06:38.671Z,101615.39
2019-02-06T17:09:16.560Z,101614.48
2019-02-06T17:11:49.666Z,101611.88
2019-02-06T17:14:39.806Z,101606.94
2019-02-06T17:17:33.262Z,101602.89
2019-02-06T17:20:32.458Z,101605.55
2019-02-06T17:23:19.378Z,101618.95
2019-02-06T17:26:09.628Z,101618.91
2019-02-06T17:28:43.312Z,101624.33
2019-02-06T17:31:18.756Z,101623.83
2019-02-06T17:33:50.742Z,101619.81
2019-02-06T17:36:32.477Z,101622.05
2019-02-06T17:39:24.414Z,101615.33
2019-02-06T17:41:54.502Z,101615.33
2019-02-06T17:44:25.909Z,101616.22
2019-02-06T17:46:56.630Z,101618.80
2019-02-06T17:49:49.736Z,101612.17
2019-02-06T17:52:21.565Z,101610.41
2019-02-06T17:55:07.429Z,101605.05
2019-02-06T17:57:35.363Z,101608.16
2019-02-06T18:00:04.450Z,101608.16
2019-02-06T18:02:32.237Z,101593.89
2019-02-06T18:05:00.096Z,101602.30
2019-02-06T18:07:28.112Z,101594.68
2019-02-06T18:09:55.967Z,101592.44
2019-02-06T18:12:26.257Z,101596.02
2019-02-06T18:14:53.281Z,101592.89
2019-02-06T18:17:21.204Z,101594.23
2019-02-06T18:19:55.267Z,101586.64
2019-02-06T18:22:23.740Z,101591.48
2019-02-06T18:24:51.671Z,101584.81
2019-02-06T18:27:19.503Z,101557.78
2019-02-06T18:29:47.262Z,101578.15
2019-02-06T18:32:15.501Z,101581.64
2019-02-06T18:34:43.305Z,101580.77
2019-02-06T18:37:11.203Z,101577.65
2019-02-06T18:39:39.034Z,101582.55
2019-02-06T18:42:07.119Z,101581.61
2019-02-06T18:44:34.959Z,101578.93
2019-02-06T18:47:02.814Z,101578.04
2019-02-06T18:49:32.155Z,101576.63
2019-02-06T18:52:00.231Z,101570.00
2019-02-06T18:54:28.164Z,101579.41
2019-02-06T18:56:56.000Z,101577.56
2019-02-06T18:59:23.881Z,101574.91
2019-02-06T19:01:51.735Z,101573.63
2019-02-06T19:04:19.998Z,101583.78
2019-02-06T19:06:47.926Z,101561.98
2019-02-06T19:09:16.337Z,101578.03
2019-02-06T19:11:44.191Z,101575.77
2019-02-06T19:14:12.013Z,101576.22
2019-02-06T19:16:39.955Z,101569.07
2019-02-06T19:19:12.200Z,101571.24
2019-02-06T19:21:42.802Z,101565.05
2019-02-06T19:24:10.878Z,101559.66
2019-02-06T19:26:38.696Z,101559.72
2019-02-06T19:29:06.597Z,101558.32
2019-02-06T19:31:34.428Z,101555.64
2019-02-06T19:34:02.562Z,101553.82
2019-02-06T19:36:30.459Z,101550.12
2019-02-06T19:38:58.287Z,101551.05
2019-02-06T19:41:26.084Z,101554.17
2019-02-06T19:43:56.487Z,101552.86
2019-02-06T19:46:24.320Z,101549.29
2019-02-06T19:48:52.160Z,101552.86
2019-02-06T19:51:19.976Z,101552.80
2019-02-06T19:53:47.981Z,101543.93
2019-02-06T19:56:15.798Z,101543.45
2019-02-06T19:58:43.580Z,101532.72
2019-02-06T20:01:11.389Z,101544.31
2019-02-06T20:03:39.253Z,101541.22
2019-02-06T20:06:07.074Z,101542.45
2019-02-06T20:08:34.921Z,101542.11
2019-02-06T20:11:02.776Z,101527.74
2019-02-06T20:13:30.955Z,101526.47
2019-02-06T20:15:58.876Z,101530.05
2019-02-06T20:18:30.467Z,101530.01
2019-02-06T20:20:58.210Z,101531.35
2019-02-06T20:23:26.037Z,101532.69
2019-02-06T20:26:31.427Z,101524.23
2019-02-06T20:29:25.072Z,101513.44
2019-02-06T20:36:05.549Z,101509.35
2019-02-06T20:40:11.838Z,101509.83
2019-02-06T20:42:25.329Z,101513.75
2019-02-06T20:45:06.564Z,101506.56
2019-02-06T20:47:37.773Z,101504.39
2019-02-06T20:50:06.259Z,101503.95
2019-02-06T20:52:34.263Z,101508.01
2019-02-06T20:55:02.210Z,101504.36
2019-02-06T20:57:31.512Z,101504.66
2019-02-06T20:59:59.845Z,101508.31
2019-02-06T21:02:29.553Z,101486.08
2019-02-06T21:05:00.836Z,101498.47
2019-02-06T21:07:28.817Z,101495.83
2019-02-06T21:09:59.287Z,101493.64
2019-02-06T21:12:27.237Z,101485.66
2019-02-06T21:14:55.659Z,101487.19
2019-02-06T21:17:23.730Z,101477.47
2019-02-06T21:19:51.698Z,101474.75
2019-02-06T21:22:19.666Z,101466.70
2019-02-06T21:24:47.511Z,101461.91
2019-02-06T21:27:15.369Z,101457.36
2019-02-06T21:29:43.575Z,101446.59
2019-02-06T21:32:12.743Z,101435.45
2019-02-06T21:34:40.773Z,101430.53
2019-02-06T21:37:15.746Z,101426.03
2019-02-06T21:39:57.841Z,101404.74
2019-02-06T21:42:25.728Z,101416.68
2019-02-06T21:44:53.923Z,101417.49
2019-02-06T21:47:24.883Z,101419.77
2019-02-06T21:49:52.475Z,101410.11
2019-02-06T21:52:21.348Z,101419.73
2019-02-06T21:54:49.214Z,101417.53
2019-02-06T21:57:17.041Z,101415.30
2019-02-06T21:59:46.236Z,101414.36
2019-02-06T22:02:14.074Z,101407.25
2019-02-06T22:04:41.916Z,101402.66
2019-02-06T22:07:09.740Z,101397.79
2019-02-06T22:09:39.628Z,101385.44
2019-02-06T22:12:10.623Z,101383.20
2019-02-06T22:14:39.119Z,101372.66
2019-02-06T22:17:06.974Z,101381.82
2019-02-06T22:19:39.445Z,101384.95
2019-02-06T22:22:31.729Z,101345.44
2019-02-06T22:24:59.636Z,101377.80
2019-02-06T22:27:27.477Z,101376.82
2019-02-06T22:29:56.599Z,101375.87
2019-02-06T22:32:24.720Z,101379.91
2019-02-06T22:34:52.561Z,101374.49
2019-02-06T22:37:23.456Z,101371.81
2019-02-06T22:39:51.292Z,101372.66
2019-02-06T22:42:19.417Z,101366.05
2019-02-06T22:44:47.425Z,101368.73
2019-02-06T22:47:15.187Z,101363.41
2019-02-06T22:49:42.914Z,101377.62
2019-02-06T22:52:10.945Z,101370.97
2019-02-06T22:54:38.719Z,101374.59
2019-02-06T22:57:06.577Z,101382.55
2019-02-06T22:59:34.392Z,101378.12
2019-02-06T23:02:02.148Z,101375.92
2019-02-06T23:04:29.985Z,101349.78
2019-02-06T23:06:57.812Z,101376.33
2019-02-06T23:09:25.708Z,101372.27
2019-02-06T23:11:53.552Z,101372.80
2019-02-06T23:14:21.391Z,101374.09
2019-02-06T23:16:49.226Z,101368.28
2019-02-06T23:19:16.980Z,101365.20
2019-02-06T23:21:44.880Z,101360.24
2019-02-06T23:24:12.678Z,101361.70
2019-02-06T23:26:40.419Z,101348.66
2019-02-06T23:29:08.241Z,101331.77
2019-02-06T23:31:36.396Z,101339.72
2019-02-06T23:34:04.332Z,101339.23
2019-02-06T23:36:32.340Z,101330.83
2019-02-06T23:39:00.114Z,101329.88
2019-02-06T23:41:27.921Z,101316.88
2019-02-06T23:43:55.667Z,101312.85
2019-02-06T23:46:23.436Z,101309.42
2019-02-06T23:48:51.253Z,101303.57
2019-02-06T23:51:19.081Z,101302.17
2019-02-06T23:53:46.825Z,101297.26
2019-02-06T23:56:14.578Z,101286.04
2019-02-06T23:58:42.323Z,101278.53
